Time;durP1;ratioP1;P1;durP2;ratioP2;P2;SDS_P1;SDS_P2;PMS_P1;PMS_P2;Temp;Humidity;BMP_temperature;BMP_pressure;BME280_temperature;BME280_humidity;BME280_pressure;Samples;Min_cycle;Max_cycle;Signal;HPM_P1;HPM_P2
2023/04/20 00:01:31;;;;;;;61.00;28.80;;;;;;;6.48;100.00;98727.95;105152;1256;99057;-68
2023/04/20 00:03:58;;;;;;;59.80;28.40;;;;;;;6.50;100.00;98727.45;105083;1253;97905;-68
2023/04/20 00:06:28;;;;;;;62.70;29.80;;;;;;;6.52;100.00;98724.81;105151;1275;97913;-68
2023/04/20 00:08:56;;;;;;;64.70;31.30;;;;;;;6.59;100.00;98725.36;105009;1264;108469;-68
2023/04/20 00:11:23;;;;;;;71.10;31.00;;;;;;;6.67;100.00;98730.35;104855;1256;98024;-68
2023/04/20 00:13:50;;;;;;;69.50;32.20;;;;;;;6.69;100.00;98728.66;104930;1253;97894;-68
2023/04/20 00:16:17;;;;;;;62.70;29.30;;;;;;;6.70;100.00;98731.19;105092;1274;98424;-68
2023/04/20 00:18:48;;;;;;;57.50;27.70;;;;;;;6.75;100.00;98731.20;104978;1258;97980;-69
2023/04/20 00:21:15;;;;;;;67.00;32.60;;;;;;;6.80;99.99;98725.98;105076;1256;107663;-69
2023/04/20 00:23:42;;;;;;;68.70;31.70;;;;;;;6.82;100.00;98722.10;105110;1272;97890;-69
2023/04/20 00:26:09;;;;;;;57.60;25.30;;;;;;;6.83;99.99;98721.66;105069;1257;97867;-68
2023/04/20 00:28:36;;;;;;;58.60;28.10;;;;;;;6.72;99.74;98724.09;105060;1256;97907;-68
2023/04/20 00:31:05;;;;;;;62.60;26.70;;;;;;;6.60;99.91;98723.28;104988;1256;97945;-69
2023/04/20 00:33:31;;;;;;;66.80;30.50;;;;;;;6.50;99.97;98721.79;105236;1257;99053;-68
2023/04/20 00:35:59;;;;;;;60.80;28.40;;;;;;;6.48;100.00;98724.80;105161;1269;99190;-68
2023/04/20 00:38:26;;;;;;;57.60;26.50;;;;;;;6.50;100.00;98720.32;105242;1256;97909;-68
2023/04/20 00:40:56;;;;;;;56.90;27.00;;;;;;;6.46;100.00;98718.61;104950;1259;97985;-69
2023/04/20 00:43:23;;;;;;;63.80;28.70;;;;;;;6.48;100.00;98717.71;104901;1275;98935;-68
2023/04/20 00:45:53;;;;;;;57.90;27.30;;;;;;;6.46;100.00;98721.88;105019;1268;97886;-68
2023/04/20 00:48:21;;;;;;;69.00;29.50;;;;;;;6.44;100.00;98724.39;105075;1267;98109;-69
2023/04/20 00:50:49;;;;;;;57.20;26.60;;;;;;;6.42;100.00;98717.55;104933;1270;98248;-68
2023/04/20 00:53:18;;;;;;;61.00;27.60;;;;;;;6.41;100.00;98717.55;105231;1256;112160;-68
2023/04/20 00:55:46;;;;;;;62.60;27.80;;;;;;;6.36;100.00;98714.44;105300;1266;99288;-68
2023/04/20 00:58:13;;;;;;;65.10;29.70;;;;;;;6.34;100.00;98713.32;104958;1261;107194;-68
2023/04/20 01:00:40;;;;;;;67.30;31.50;;;;;;;6.36;100.00;98709.92;105040;1275;98011;-69
2023/04/20 01:03:07;;;;;;;64.70;29.20;;;;;;;6.38;100.00;98706.75;105181;1256;97905;-69
2023/04/20 01:05:35;;;;;;;69.50;31.70;;;;;;;6.39;100.00;98705.27;105012;1258;97898;-69
2023/04/20 01:08:02;;;;;;;72.60;32.20;;;;;;;6.46;100.00;98709.78;105080;1256;98644;-69
2023/04/20 01:10:29;;;;;;;74.80;31.90;;;;;;;6.52;100.00;98709.90;105209;1256;97899;-70
2023/04/20 01:12:56;;;;;;;71.90;29.70;;;;;;;6.50;100.00;98711.02;105108;1256;97928;-69
2023/04/20 01:15:23;;;;;;;98.40;36.30;;;;;;;6.50;100.00;98710.23;105237;1253;97929;-68
2023/04/20 01:17:51;;;;;;;82.00;34.00;;;;;;;6.50;100.00;98705.83;105193;1256;99260;-67
2023/04/20 01:20:19;;;;;;;58.00;26.80;;;;;;;6.45;100.00;98701.02;105026;1268;98028;-68
2023/04/20 01:22:49;;;;;;;59.30;27.50;;;;;;;6.38;100.00;98701.08;105155;1256;97988;-68
2023/04/20 01:25:17;;;;;;;67.50;29.80;;;;;;;6.38;100.00;98703.31;105077;1253;97950;-68
2023/04/20 01:27:44;;;;;;;71.40;28.80;;;;;;;6.38;100.00;98700.71;105198;1266;98343;-68
2023/04/20 01:30:12;;;;;;;66.30;28.10;;;;;;;6.35;100.00;98702.14;105160;1256;112224;-68
2023/04/20 01:32:40;;;;;;;62.40;28.60;;;;;;;6.39;100.00;98696.45;105032;1256;99324;-68
2023/04/20 01:35:08;;;;;;;65.80;27.20;;;;;;;6.42;100.00;98693.59;105001;1260;107562;-68
2023/04/20 01:37:36;;;;;;;65.60;27.10;;;;;;;6.38;100.00;98694.60;105174;1258;97976;-68
2023/04/20 01:40:05;;;;;;;58.30;23.70;;;;;;;6.33;100.00;98691.76;105156;1256;97893;-68
2023/04/20 01:42:36;;;;;;;73.80;29.40;;;;;;;6.27;100.00;98682.99;104911;1262;110665;-68
2023/04/20 01:45:09;;;;;;;67.90;28.00;;;;;;;6.26;100.00;98680.06;105094;1270;100101;-68
2023/04/20 01:47:37;;;;;;;66.20;26.80;;;;;;;6.28;100.00;98676.83;104979;1259;107272;-68
2023/04/20 01:50:05;;;;;;;80.20;30.00;;;;;;;6.28;100.00;98676.77;105166;1272;97969;-68
2023/04/20 01:52:32;;;;;;;79.60;26.00;;;;;;;6.36;100.00;98680.36;105239;1256;99179;-68
2023/04/20 01:55:00;;;;;;;75.90;28.60;;;;;;;6.31;100.00;98679.36;104966;1260;112002;-68
2023/04/20 01:57:27;;;;;;;74.20;28.50;;;;;;;6.25;100.00;98681.37;105061;1257;97903;-68
2023/04/20 01:59:54;;;;;;;69.70;28.40;;;;;;;6.22;100.00;98685.10;105103;1256;99208;-68
2023/04/20 02:02:21;;;;;;;74.30;28.70;;;;;;;6.23;100.00;98688.40;105159;1269;97973;-68
2023/04/20 02:04:49;;;;;;;59.20;26.00;;;;;;;6.26;100.00;98687.41;105234;1256;99301;-67
2023/04/20 02:07:16;;;;;;;57.80;22.60;;;;;;;6.21;100.00;98692.77;105153;1254;97905;-67
2023/04/20 02:09:44;;;;;;;76.30;29.80;;;;;;;6.17;100.00;98695.85;105169;1266;97965;-68
2023/04/20 02:12:11;;;;;;;54.30;19.20;;;;;;;6.15;100.00;98691.83;105137;1275;99081;-68
2023/04/20 02:14:38;;;;;;;72.10;26.90;;;;;;;6.12;100.00;98690.07;105189;1258;97981;-68
2023/04/20 02:17:06;;;;;;;68.20;26.40;;;;;;;6.12;100.00;98687.83;105225;1256;99176;-67
2023/04/20 02:19:33;;;;;;;76.80;26.70;;;;;;;6.13;100.00;98685.33;105211;1256;97885;-67
2023/04/20 02:22:01;;;;;;;68.50;24.90;;;;;;;6.15;100.00;98681.99;105223;1256;97993;-67
2023/04/20 02:24:28;;;;;;;82.90;27.30;;;;;;;6.14;100.00;98685.91;105036;1256;98024;-66
2023/04/20 02:26:55;;;;;;;58.80;24.10;;;;;;;6.12;100.00;98682.23;105116;1256;99211;-67
2023/04/20 02:29:24;;;;;;;57.10;23.90;;;;;;;6.09;100.00;98682.52;105004;1258;97884;-67
2023/04/20 02:31:52;;;;;;;58.80;23.10;;;;;;;6.07;100.00;98678.62;105069;1260;110921;-69
2023/04/20 02:34:19;;;;;;;64.90;26.50;;;;;;;6.08;100.00;98681.61;105114;1256;99084;-72
2023/04/20 02:36:47;;;;;;;80.70;28.50;;;;;;;6.12;100.00;98681.64;105278;1256;97942;-67
2023/04/20 02:39:14;;;;;;;75.70;28.40;;;;;;;6.17;100.00;98688.89;105380;1256;97915;-68
2023/04/20 02:41:42;;;;;;;52.00;21.30;;;;;;;6.20;100.00;98687.61;105110;1259;99528;-68
2023/04/20 02:44:09;;;;;;;57.50;23.40;;;;;;;6.18;100.00;98689.97;105215;1256;98484;-67
2023/04/20 02:46:36;;;;;;;59.60;22.60;;;;;;;6.15;100.00;98692.21;105172;1256;98065;-67
2023/04/20 02:49:03;;;;;;;51.80;21.30;;;;;;;6.13;100.00;98693.70;105228;1265;97980;-68
2023/04/20 02:51:31;;;;;;;57.40;23.50;;;;;;;6.10;100.00;98696.71;105066;1267;97905;-68
2023/04/20 02:53:58;;;;;;;57.00;22.20;;;;;;;6.12;100.00;98698.30;105278;1269;97914;-67
2023/04/20 02:56:25;;;;;;;56.80;23.30;;;;;;;6.13;100.00;98699.91;105228;1254;98146;-68
2023/04/20 02:58:54;;;;;;;77.00;28.10;;;;;;;6.13;100.00;98705.14;105069;1256;97907;-68
2023/04/20 03:01:21;;;;;;;80.00;28.50;;;;;;;6.16;100.00;98706.63;105229;1269;97913;-68
2023/04/20 03:03:48;;;;;;;68.90;27.00;;;;;;;6.18;100.00;98707.92;105191;1253;98012;-68
2023/04/20 03:06:15;;;;;;;77.90;28.20;;;;;;;6.23;100.00;98706.54;105128;1275;98285;-67
2023/04/20 03:08:43;;;;;;;75.70;26.50;;;;;;;6.29;100.00;98705.52;105166;1256;98494;-68
2023/04/20 03:11:10;;;;;;;79.20;28.60;;;;;;;6.37;100.00;98702.27;105239;1256;98786;-68
2023/04/20 03:13:37;;;;;;;63.10;23.60;;;;;;;6.44;100.00;98702.44;105219;1267;98428;-68
2023/04/20 03:16:05;;;;;;;92.70;31.90;;;;;;;6.44;100.00;98705.71;105150;1257;99189;-68
2023/04/20 03:18:32;;;;;;;100.60;32.20;;;;;;;6.43;100.00;98703.16;105223;1256;97890;-68
2023/04/20 03:20:59;;;;;;;83.00;29.90;;;;;;;6.43;100.00;98703.55;105123;1259;97800;-67
2023/04/20 03:23:26;;;;;;;62.00;24.10;;;;;;;6.46;100.00;98700.30;104961;1257;99186;-67
2023/04/20 03:25:53;;;;;;;72.10;25.70;;;;;;;6.42;100.00;98700.56;105124;1267;98553;-67
2023/04/20 03:28:20;;;;;;;71.70;25.60;;;;;;;6.42;100.00;98699.08;105007;1256;98034;-67
2023/04/20 03:30:47;;;;;;;67.20;26.00;;;;;;;6.47;100.00;98698.29;105235;1256;97916;-67
2023/04/20 03:33:15;;;;;;;71.90;25.60;;;;;;;6.53;100.00;98702.16;105113;1264;99587;-67
2023/04/20 03:35:42;;;;;;;68.00;24.80;;;;;;;6.58;100.00;98701.90;105101;1266;97901;-67
2023/04/20 03:38:09;;;;;;;63.60;25.00;;;;;;;6.53;100.00;98700.35;105058;1256;98785;-67
2023/04/20 03:40:36;;;;;;;60.70;24.40;;;;;;;6.50;100.00;98703.83;105145;1256;99138;-67
2023/04/20 03:43:04;;;;;;;56.50;21.90;;;;;;;6.50;100.00;98698.91;105096;1256;97919;-67
2023/04/20 03:45:31;;;;;;;59.20;23.30;;;;;;;6.46;100.00;98697.63;105182;1256;97861;-67
2023/04/20 03:47:58;;;;;;;67.40;24.80;;;;;;;6.43;100.00;98708.00;105085;1256;97863;-67
2023/04/20 03:50:25;;;;;;;56.80;22.20;;;;;;;6.43;100.00;98711.27;104989;1269;97962;-67
2023/04/20 03:52:53;;;;;;;57.80;22.90;;;;;;;6.42;100.00;98714.54;105216;1256;97863;-69
2023/04/20 03:55:20;;;;;;;55.60;22.00;;;;;;;6.40;100.00;98718.59;105149;1258;99291;-71
2023/04/20 03:57:47;;;;;;;58.80;23.00;;;;;;;6.38;100.00;98717.41;105224;1258;97980;-67
2023/04/20 04:00:15;;;;;;;61.50;23.90;;;;;;;6.38;100.00;98716.21;105212;1275;98793;-66
2023/04/20 04:02:42;;;;;;;56.80;21.80;;;;;;;6.39;100.00;98716.70;105229;1257;97889;-66
2023/04/20 04:05:09;;;;;;;60.60;22.60;;;;;;;6.40;100.00;98718.30;105234;1275;98837;-67
2023/04/20 04:07:37;;;;;;;61.20;24.80;;;;;;;6.42;100.00;98719.94;105260;1267;98197;-67
2023/04/20 04:10:05;;;;;;;65.20;23.20;;;;;;;6.43;100.00;98720.70;105287;1256;98734;-67
2023/04/20 04:12:32;;;;;;;61.00;22.60;;;;;;;6.42;100.00;98719.33;105293;1266;97915;-67
2023/04/20 04:14:59;;;;;;;60.00;23.50;;;;;;;6.41;100.00;98720.82;105013;1259;98002;-67
2023/04/20 04:17:26;;;;;;;66.50;26.10;;;;;;;6.43;100.00;98721.89;105239;1256;99189;-67
2023/04/20 04:19:54;;;;;;;66.70;26.60;;;;;;;6.45;100.00;98719.09;105168;1265;97879;-67
2023/04/20 04:22:21;;;;;;;61.60;25.10;;;;;;;6.47;100.00;98719.36;105244;1266;99208;-67
2023/04/20 04:24:48;;;;;;;60.80;24.10;;;;;;;6.47;100.00;98721.36;105283;1267;97909;-68
2023/04/20 04:27:15;;;;;;;59.20;25.60;;;;;;;6.47;100.00;98718.92;104983;1261;98455;-67
2023/04/20 04:29:43;;;;;;;57.00;23.10;;;;;;;6.48;100.00;98718.09;105203;1256;98696;-67
2023/04/20 04:32:11;;;;;;;51.80;21.60;;;;;;;6.47;100.00;98722.52;105071;1270;99347;-68
2023/04/20 04:34:38;;;;;;;67.40;26.40;;;;;;;6.47;100.00;98726.10;105243;1266;108499;-68
2023/04/20 04:37:05;;;;;;;64.70;26.30;;;;;;;6.53;100.00;98725.67;105245;1253;97933;-68
2023/04/20 04:39:32;;;;;;;63.70;25.30;;;;;;;6.58;100.00;98725.86;105258;1256;99194;-67
2023/04/20 04:41:59;;;;;;;58.20;23.10;;;;;;;6.62;100.00;98726.75;105243;1257;98792;-68
2023/04/20 04:44:30;;;;;;;64.40;25.80;;;;;;;6.67;100.00;98726.16;105025;1253;98807;-68
2023/04/20 04:46:57;;;;;;;62.90;26.40;;;;;;;6.75;100.00;98730.98;105047;1262;107789;-68
2023/04/20 04:49:25;;;;;;;71.30;28.60;;;;;;;6.83;100.00;98730.00;105211;1275;99184;-66
2023/04/20 04:51:52;;;;;;;64.80;26.70;;;;;;;6.88;100.00;98730.98;105270;1253;97907;-67
2023/04/20 04:54:19;;;;;;;59.10;25.40;;;;;;;6.99;100.00;98733.60;105253;1267;97860;-68
2023/04/20 04:56:46;;;;;;;83.70;31.00;;;;;;;7.01;100.00;98733.14;105290;1264;99192;-68
2023/04/20 04:59:13;;;;;;;66.80;27.90;;;;;;;7.04;100.00;98738.29;105066;1259;97979;-68
2023/04/20 05:01:41;;;;;;;65.50;26.70;;;;;;;7.07;100.00;98739.35;105214;1267;98813;-67
2023/04/20 05:04:08;;;;;;;62.50;26.50;;;;;;;7.17;100.00;98737.02;105140;1266;97906;-68
2023/04/20 05:06:35;;;;;;;61.40;26.20;;;;;;;7.34;100.00;98736.45;105123;1267;97830;-68
2023/04/20 05:09:03;;;;;;;57.80;26.10;;;;;;;7.52;100.00;98740.66;105170;1256;97894;-68
2023/04/20 05:11:30;;;;;;;59.40;26.10;;;;;;;7.63;100.00;98737.52;105107;1257;98436;-69
2023/04/20 05:13:57;;;;;;;52.90;24.30;;;;;;;7.69;100.00;98744.00;105136;1266;99155;-71
2023/04/20 05:16:24;;;;;;;53.10;22.80;;;;;;;7.79;100.00;98746.80;105078;1256;97943;-68
2023/04/20 05:18:51;;;;;;;50.80;22.50;;;;;;;7.81;100.00;98748.63;105314;1267;97878;-68
2023/04/20 05:21:18;;;;;;;50.50;23.20;;;;;;;7.77;100.00;98750.10;104958;1269;108354;-68
2023/04/20 05:23:45;;;;;;;63.30;26.40;;;;;;;7.75;100.00;98753.57;105176;1267;99246;-68
2023/04/20 05:26:12;;;;;;;58.40;26.10;;;;;;;7.79;100.00;98753.67;105212;1265;97909;-69
2023/04/20 05:28:39;;;;;;;56.00;24.80;;;;;;;7.88;100.00;98754.06;105242;1260;97835;-68
2023/04/20 05:31:07;;;;;;;62.40;26.10;;;;;;;7.96;100.00;98757.18;105174;1275;98672;-69
2023/04/20 05:33:34;;;;;;;62.00;26.80;;;;;;;8.02;100.00;98758.67;105212;1256;97969;-68
2023/04/20 05:36:00;;;;;;;58.10;26.20;;;;;;;8.02;100.00;98756.10;105159;1267;98804;-68
2023/04/20 05:38:27;;;;;;;53.10;25.10;;;;;;;8.08;100.00;98761.17;105179;1267;97979;-68
2023/04/20 05:40:55;;;;;;;56.20;25.00;;;;;;;8.07;100.00;98761.50;105065;1261;98328;-69
2023/04/20 05:43:22;;;;;;;56.40;26.50;;;;;;;8.13;100.00;98764.57;104917;1261;108058;-68
2023/04/20 05:45:49;;;;;;;55.90;26.50;;;;;;;8.20;100.00;98766.20;105124;1256;98798;-69
2023/04/20 05:48:16;;;;;;;59.80;25.30;;;;;;;8.36;100.00;98766.77;105044;1267;97932;-69
2023/04/20 05:50:43;;;;;;;50.60;23.30;;;;;;;8.40;99.48;98772.73;104834;1268;97940;-69
2023/04/20 05:53:10;;;;;;;59.40;26.20;;;;;;;8.30;99.08;98770.57;105066;1258;97966;-68
2023/04/20 05:55:37;;;;;;;53.60;23.60;;;;;;;8.34;100.00;98772.69;105096;1258;99189;-69
2023/04/20 05:58:04;;;;;;;49.30;23.60;;;;;;;8.44;100.00;98774.19;105048;1257;99193;-68
2023/04/20 06:00:31;;;;;;;54.10;23.10;;;;;;;8.50;100.00;98773.94;105254;1256;97878;-69
2023/04/20 06:02:59;;;;;;;49.50;23.30;;;;;;;8.49;99.24;98776.86;105230;1267;99183;-68
2023/04/20 06:05:26;;;;;;;47.10;22.70;;;;;;;8.41;99.02;98779.30;105176;1258;108651;-69
2023/04/20 06:07:53;;;;;;;42.60;20.80;;;;;;;8.45;99.63;98776.69;105107;1257;97887;-67
2023/04/20 06:10:20;;;;;;;43.20;19.30;;;;;;;8.52;98.62;98775.60;105137;1269;98303;-69
2023/04/20 06:12:47;;;;;;;38.90;18.90;;;;;;;8.55;97.71;98773.34;105103;1264;97981;-68
2023/04/20 06:15:14;;;;;;;39.50;20.50;;;;;;;8.68;98.65;98773.14;105118;1267;99185;-68
2023/04/20 06:17:41;;;;;;;41.30;20.00;;;;;;;8.89;99.37;98771.05;105214;1269;97973;-68
2023/04/20 06:20:10;;;;;;;37.90;19.00;;;;;;;9.13;99.45;98769.38;105202;1257;97974;-68
2023/04/20 06:22:46;;;;;;;40.50;19.10;;;;;;;9.19;94.80;98770.59;105290;1257;98435;-69
2023/04/20 06:25:16;;;;;;;29.50;15.60;;;;;;;9.15;94.50;98771.84;105016;1264;111451;-69
2023/04/20 06:27:43;;;;;;;30.60;15.60;;;;;;;9.13;93.75;98774.33;104841;1261;98741;-69
2023/04/20 06:30:12;;;;;;;29.60;16.80;;;;;;;9.14;93.97;98776.83;105139;1275;99221;-68
2023/04/20 06:32:39;;;;;;;31.00;13.10;;;;;;;9.20;92.22;98782.98;105073;1257;99214;-69
2023/04/20 06:35:07;;;;;;;34.00;17.80;;;;;;;9.25;92.52;98777.80;105178;1260;98320;-68
2023/04/20 06:37:35;;;;;;;30.70;15.80;;;;;;;9.33;92.75;98782.95;105097;1264;112279;-68
2023/04/20 06:40:06;;;;;;;35.00;17.40;;;;;;;9.39;91.33;98783.16;105097;1260;99185;-68
2023/04/20 06:42:35;;;;;;;30.20;15.20;;;;;;;9.39;90.90;98783.49;105002;1270;105582;-68
2023/04/20 06:45:04;;;;;;;30.50;14.90;;;;;;;9.43;91.53;98781.17;105011;1269;99106;-69
2023/04/20 06:47:32;;;;;;;26.90;14.80;;;;;;;9.52;90.86;98777.55;105081;1261;97901;-70
2023/04/20 06:50:01;;;;;;;30.60;15.00;;;;;;;9.59;90.28;98778.09;105236;1259;112152;-69
2023/04/20 06:52:30;;;;;;;30.40;15.70;;;;;;;9.64;89.75;98777.64;105124;1267;99305;-67
2023/04/20 06:54:59;;;;;;;31.30;15.00;;;;;;;9.64;89.13;98777.74;105010;1263;108105;-67
2023/04/20 06:57:26;;;;;;;24.60;12.30;;;;;;;9.66;88.20;98777.51;105057;1266;345458;-67
2023/04/20 06:59:53;;;;;;;19.40;10.40;;;;;;;9.64;87.71;98775.62;105220;1266;97905;-67
2023/04/20 07:02:20;;;;;;;23.20;12.00;;;;;;;9.60;87.21;98775.81;105281;1256;97922;-67
2023/04/20 07:04:47;;;;;;;22.90;12.00;;;;;;;9.63;87.95;98780.89;105259;1254;99278;-68
2023/04/20 07:07:14;;;;;;;21.40;11.10;;;;;;;9.73;87.44;98781.90;105168;1258;99244;-68
2023/04/20 07:09:41;;;;;;;25.20;12.50;;;;;;;9.80;86.19;98787.67;105200;1266;98512;-68
2023/04/20 07:12:10;;;;;;;27.20;14.10;;;;;;;9.85;85.87;98783.86;105021;1267;99234;-68
2023/04/20 07:14:37;;;;;;;18.50;10.40;;;;;;;9.96;86.23;98787.45;105180;1264;98398;-68
2023/04/20 07:17:04;;;;;;;26.50;13.40;;;;;;;9.98;84.60;98792.02;105033;1264;97988;-67
2023/04/20 07:19:32;;;;;;;26.10;14.30;;;;;;;10.04;86.17;98792.83;105187;1258;98508;-68
2023/04/20 07:21:59;;;;;;;22.10;11.90;;;;;;;10.18;86.20;98794.92;105198;1267;99197;-68
2023/04/20 07:24:26;;;;;;;24.70;14.20;;;;;;;10.27;85.92;98790.19;105048;1266;98023;-68
2023/04/20 07:26:54;;;;;;;20.80;11.30;;;;;;;10.35;85.22;98795.05;105185;1266;97900;-68
2023/04/20 07:29:21;;;;;;;29.90;15.20;;;;;;;10.31;84.47;98796.91;105239;1265;97979;-68
2023/04/20 07:31:48;;;;;;;28.70;14.90;;;;;;;10.28;84.47;98800.40;105037;1270;97861;-68
2023/04/20 07:34:16;;;;;;;30.10;14.20;;;;;;;10.29;84.27;98807.68;105114;1257;97956;-67
2023/04/20 07:36:44;;;;;;;27.70;14.50;;;;;;;10.35;84.08;98803.17;105108;1258;101312;-67
2023/04/20 07:39:11;;;;;;;21.00;13.10;;;;;;;10.43;84.81;98806.27;105203;1266;98091;-67
2023/04/20 07:41:38;;;;;;;20.50;11.50;;;;;;;10.63;84.28;98799.49;105196;1266;110607;-67
2023/04/20 07:44:05;;;;;;;24.60;13.50;;;;;;;10.76;81.88;98804.94;105164;1267;98887;-67
2023/04/20 07:46:32;;;;;;;21.80;10.80;;;;;;;10.84;81.72;98800.47;105127;1265;97998;-68
2023/04/20 07:48:59;;;;;;;18.40;9.80;;;;;;;10.91;79.55;98798.43;105043;1267;97963;-68
2023/04/20 07:51:29;;;;;;;19.50;11.30;;;;;;;10.97;78.26;98801.78;104994;1258;97881;-68
2023/04/20 07:53:56;;;;;;;16.00;8.60;;;;;;;11.03;79.16;98801.09;105095;1265;98511;-68
2023/04/20 07:56:23;;;;;;;20.50;11.70;;;;;;;10.94;77.83;98803.29;105257;1257;97935;-69
2023/04/20 07:58:50;;;;;;;19.70;10.90;;;;;;;10.85;78.83;98806.83;105039;1256;97912;-72
2023/04/20 08:01:23;;;;;;;21.00;11.50;;;;;;;10.85;79.35;98803.45;105294;1267;97877;-68
2023/04/20 08:03:50;;;;;;;27.20;14.80;;;;;;;10.95;78.71;98800.80;105233;1267;112046;-68
2023/04/20 08:06:18;;;;;;;215.20;67.20;;;;;;;11.08;79.14;98800.30;105103;1262;98081;-68
2023/04/20 08:08:45;;;;;;;29.00;14.20;;;;;;;11.21;78.16;98804.15;105186;1264;97941;-68
2023/04/20 08:11:12;;;;;;;26.30;14.70;;;;;;;11.15;76.35;98804.47;105287;1260;98805;-68
2023/04/20 08:13:40;;;;;;;19.50;11.40;;;;;;;11.17;78.06;98800.35;105226;1266;97903;-68
2023/04/20 08:16:07;;;;;;;25.10;13.40;;;;;;;11.32;77.57;98799.47;105194;1258;97905;-67
2023/04/20 08:18:34;;;;;;;35.10;19.10;;;;;;;11.57;79.08;98801.22;105219;1266;97884;-67
2023/04/20 08:21:01;;;;;;;20.70;10.30;;;;;;;12.05;77.83;98797.79;105298;1265;99189;-68
2023/04/20 08:23:28;;;;;;;22.20;11.70;;;;;;;12.10;73.97;98804.20;105216;1266;97816;-67
2023/04/20 08:25:56;;;;;;;22.90;12.90;;;;;;;12.04;74.51;98803.58;105215;1255;97845;-67
2023/04/20 08:28:23;;;;;;;19.70;9.90;;;;;;;12.11;76.06;98804.17;105290;1275;97915;-67
2023/04/20 08:30:55;;;;;;;17.80;9.70;;;;;;;12.12;73.62;98800.20;105240;1260;99103;-68
2023/04/20 08:33:22;;;;;;;16.30;9.10;;;;;;;12.05;73.42;98802.13;105172;1267;98130;-68
2023/04/20 08:35:50;;;;;;;15.20;8.30;;;;;;;11.96;72.48;98803.77;105239;1266;97892;-68
2023/04/20 08:38:18;;;;;;;18.70;10.40;;;;;;;11.91;72.82;98800.23;105050;1254;98053;-68
2023/04/20 08:40:56;;;;;;;14.60;8.50;;;;;;;12.07;72.76;98798.13;105257;1275;111186;-68
2023/04/20 08:43:23;;;;;;;14.20;8.50;;;;;;;12.21;73.30;98799.44;105187;1267;97931;-67
2023/04/20 08:45:56;;;;;;;17.30;9.10;;;;;;;12.45;73.22;98799.44;105214;1254;99081;-69
2023/04/20 08:48:25;;;;;;;12.30;8.10;;;;;;;12.52;72.19;98804.93;105266;1257;98131;-68
2023/04/20 08:50:54;;;;;;;18.80;10.20;;;;;;;12.44;71.66;98799.27;105273;1267;98356;-68
2023/04/20 08:53:21;;;;;;;17.40;11.10;;;;;;;12.27;71.10;98800.52;105048;1259;110776;-68
2023/04/20 08:55:49;;;;;;;19.20;11.00;;;;;;;12.12;71.98;98804.08;105092;1268;97946;-68
2023/04/20 08:58:17;;;;;;;16.70;10.80;;;;;;;12.00;72.47;98806.16;105100;1258;108603;-67
2023/04/20 09:00:48;;;;;;;21.10;11.40;;;;;;;12.04;72.58;98803.52;105124;1254;97882;-68
2023/04/20 09:03:15;;;;;;;20.10;10.60;;;;;;;12.01;72.18;98803.38;105098;1254;99414;-68
2023/04/20 09:05:43;;;;;;;21.10;12.30;;;;;;;12.09;73.03;98800.15;105009;1257;112175;-67
2023/04/20 09:08:10;;;;;;;22.90;11.10;;;;;;;12.44;71.94;98795.64;105170;1256;98040;-67
2023/04/20 09:10:42;;;;;;;19.80;11.30;;;;;;;12.97;73.59;98793.30;105126;1257;97964;-67
2023/04/20 09:13:36;;;;;;;16.40;10.30;;;;;;;13.36;69.81;98802.33;104769;1261;98059;-68
2023/04/20 09:16:10;;;;;;;16.30;9.50;;;;;;;13.38;69.38;98794.40;104779;1260;99085;-68
2023/04/20 09:18:38;;;;;;;19.20;10.30;;;;;;;13.34;69.77;98798.77;104871;1260;111379;-67
2023/04/20 09:21:09;;;;;;;17.80;9.30;;;;;;;13.58;71.01;98793.63;105136;1256;97902;-72
2023/04/20 09:23:36;;;;;;;12.40;6.90;;;;;;;13.80;66.96;98787.05;104955;1260;107427;-67
2023/04/20 09:26:03;;;;;;;13.90;7.80;;;;;;;13.66;66.15;98788.48;105222;1255;97897;-67
2023/04/20 09:28:37;;;;;;;14.20;8.10;;;;;;;13.78;65.71;98786.09;105020;1257;98022;-67
2023/04/20 09:31:16;;;;;;;18.10;9.90;;;;;;;14.22;69.10;98787.25;104891;1270;111281;-68
2023/04/20 09:33:43;;;;;;;17.70;9.80;;;;;;;15.02;68.74;98790.93;104824;1270;98794;-67
2023/04/20 09:36:10;;;;;;;15.20;9.70;;;;;;;15.63;66.89;98786.34;105239;1267;97993;-67
2023/04/20 09:38:37;;;;;;;15.30;9.40;;;;;;;16.01;64.39;98786.13;105255;1255;97876;-68
2023/04/20 09:41:05;;;;;;;14.10;9.40;;;;;;;15.93;63.21;98782.08;105213;1266;98116;-66
2023/04/20 09:43:35;;;;;;;11.80;7.20;;;;;;;15.94;62.11;98786.86;105010;1261;111355;-68
2023/04/20 09:46:02;;;;;;;9.90;5.90;;;;;;;15.64;59.49;98787.86;105251;1255;99016;-68
2023/04/20 09:48:30;;;;;;;11.50;6.50;;;;;;;15.21;60.07;98782.50;105071;1268;108187;-68
2023/04/20 09:51:01;;;;;;;11.50;6.90;;;;;;;15.04;60.38;98783.75;105051;1264;98012;-67
2023/04/20 09:53:30;;;;;;;13.10;7.30;;;;;;;14.93;61.13;98784.48;105041;1260;98124;-67
2023/04/20 09:55:59;;;;;;;13.40;7.60;;;;;;;14.79;61.02;98783.27;105271;1257;112023;-68
2023/04/20 09:58:27;;;;;;;11.40;7.10;;;;;;;14.65;60.99;98782.04;105013;1257;98371;-67
2023/04/20 10:00:54;;;;;;;13.30;7.70;;;;;;;14.83;61.26;98779.34;105164;1270;108104;-67
2023/04/20 10:03:21;;;;;;;12.10;7.60;;;;;;;14.99;61.23;98777.81;105272;1257;97934;-67
2023/04/20 10:05:49;;;;;;;14.50;7.90;;;;;;;14.96;60.66;98779.08;105199;1253;97897;-68
2023/04/20 10:08:19;;;;;;;13.10;7.50;;;;;;;14.67;60.84;98785.51;105057;1258;113173;-68
2023/04/20 10:10:49;;;;;;;14.30;7.50;;;;;;;14.45;61.37;98786.42;104995;1255;99259;-68
2023/04/20 10:13:20;;;;;;;14.40;8.00;;;;;;;14.27;61.73;98782.48;104990;1259;107217;-67
2023/04/20 10:15:47;;;;;;;17.20;8.90;;;;;;;14.24;62.25;98776.08;105132;1257;98002;-69
2023/04/20 10:18:22;;;;;;;17.00;8.70;;;;;;;14.27;62.98;98772.63;104994;1263;99091;-68
2023/04/20 10:20:51;;;;;;;15.80;8.50;;;;;;;14.34;62.61;98766.60;105238;1265;112299;-68
2023/04/20 10:23:18;;;;;;;11.70;8.00;;;;;;;14.49;64.41;98766.25;105261;1266;99174;-68
2023/04/20 10:25:59;;;;;;;14.40;8.70;;;;;;;14.56;62.64;98769.20;105235;1267;107958;-69
2023/04/20 10:28:40;;;;;;;11.10;7.10;;;;;;;14.47;62.34;98761.70;104945;1267;97952;-67
2023/04/20 10:31:12;;;;;;;7.40;4.20;;;;;;;14.36;63.37;98765.16;105203;1256;99074;-67
2023/04/20 10:34:08;;;;;;;14.40;7.60;;;;;;;14.25;62.17;98762.64;105298;1257;112134;-67
2023/04/20 10:36:36;;;;;;;10.70;6.80;;;;;;;14.05;62.35;98760.71;104337;1268;98664;-68
2023/04/20 10:39:18;;;;;;;12.90;7.60;;;;;;;13.93;63.45;98764.42;104534;1265;106662;-69
2023/04/20 10:41:53;;;;;;;15.60;8.90;;;;;;;13.82;62.65;98761.64;104497;1266;97992;-73
2023/04/20 10:44:20;;;;;;;15.50;9.20;;;;;;;13.63;63.06;98760.35;104755;1273;98247;-68
2023/04/20 10:46:49;;;;;;;11.20;6.20;;;;;;;13.53;64.50;98757.36;104787;1264;98009;-66
2023/04/20 10:49:17;;;;;;;15.30;8.70;;;;;;;13.48;64.40;98757.52;104646;1264;99333;-68
2023/04/20 10:51:47;;;;;;;14.60;7.90;;;;;;;13.49;64.56;98751.02;104517;1264;107162;-67
2023/04/20 10:54:15;;;;;;;13.90;8.40;;;;;;;13.48;64.42;98755.14;104543;1264;98016;-67
2023/04/20 10:56:51;;;;;;;18.40;8.50;;;;;;;13.40;64.59;98755.52;104538;1260;99091;-68
2023/04/20 10:59:21;;;;;;;13.40;7.30;;;;;;;13.37;64.91;98753.15;104666;1264;112180;-69
2023/04/20 11:01:50;;;;;;;16.00;8.80;;;;;;;13.36;64.66;98749.39;104504;1261;99579;-68
2023/04/20 11:04:17;;;;;;;23.00;9.80;;;;;;;13.29;65.12;98746.32;104678;1264;107659;-68
2023/04/20 11:06:46;;;;;;;16.70;7.90;;;;;;;13.24;64.88;98744.13;104455;1277;98091;-67
2023/04/20 11:09:19;;;;;;;16.20;8.80;;;;;;;13.23;65.54;98746.66;104824;1260;97890;-70
2023/04/20 11:12:00;;;;;;;17.40;10.10;;;;;;;13.33;65.80;98743.13;104587;1270;111219;-67
2023/04/20 11:14:29;;;;;;;15.10;9.10;;;;;;;13.43;64.94;98740.49;105044;1258;99215;-68
2023/04/20 11:16:56;;;;;;;15.40;9.40;;;;;;;13.48;65.21;98739.95;105225;1257;108264;-69